sensor_id;sensor_type;location;lat;lon;timestamp;noise_LAeq;noise_LA_min;noise_LA_max;noise_LA01;noise_LA95
47109;Laerm;32856;51.422;6.794;2024-02-14T00:00:03;54.37;45.63;70.53;;
47109;Laerm;32856;51.422;6.794;2024-02-14T00:02:32;51.03;44.97;60.99;;
47109;Laerm;32856;51.422;6.794;2024-02-14T00:04:59;48.72;43.90;56.33;;
47109;Laerm;32856;51.422;6.794;2024-02-14T00:07:27;55.34;43.81;63.93;;
47109;Laerm;32856;51.422;6.794;2024-02-14T00:09:55;52.62;46.50;62.79;;
47109;Laerm;32856;51.422;6.794;2024-02-14T00:12:22;55.84;42.88;69.33;;
47109;Laerm;32856;51.422;6.794;2024-02-14T00:14:50;57.72;44.31;74.33;;
47109;Laerm;32856;51.422;6.794;2024-02-14T00:17:18;52.86;47.00;61.07;;
47109;Laerm;32856;51.422;6.794;2024-02-14T00:19:46;52.39;47.65;63.74;;
47109;Laerm;32856;51.422;6.794;2024-02-14T00:22:15;51.98;46.43;58.26;;
47109;Laerm;32856;51.422;6.794;2024-02-14T00:24:42;52.25;45.77;61.94;;
47109;Laerm;32856;51.422;6.794;2024-02-14T00:27:10;56.83;40.43;72.04;;
47109;Laerm;32856;51.422;6.794;2024-02-14T00:29:37;51.43;44.35;63.30;;
47109;Laerm;32856;51.422;6.794;2024-02-14T00:32:05;50.25;44.43;65.86;;
47109;Laerm;32856;51.422;6.794;2024-02-14T00:34:32;49.47;43.99;56.83;;
47109;Laerm;32856;51.422;6.794;2024-02-14T00:37:01;51.27;44.58;60.73;;
47109;Laerm;32856;51.422;6.794;2024-02-14T00:39:29;49.30;42.65;65.35;;
47109;Laerm;32856;51.422;6.794;2024-02-14T00:41:56;51.17;44.15;59.97;;
47109;Laerm;32856;51.422;6.794;2024-02-14T00:44:24;51.11;44.87;58.89;;
47109;Laerm;32856;51.422;6.794;2024-02-14T00:46:55;52.73;44.87;60.74;;
47109;Laerm;32856;51.422;6.794;2024-02-14T00:49:22;51.90;43.49;69.63;;
47109;Laerm;32856;51.422;6.794;2024-02-14T00:51:50;50.11;41.89;57.50;;
47109;Laerm;32856;51.422;6.794;2024-02-14T00:54:18;50.51;45.42;59.29;;
47109;Laerm;32856;51.422;6.794;2024-02-14T00:56:46;54.66;46.06;71.26;;
47109;Laerm;32856;51.422;6.794;2024-02-14T00:59:13;51.09;44.65;60.65;;
47109;Laerm;32856;51.422;6.794;2024-02-14T01:01:40;50.48;45.36;57.76;;
47109;Laerm;32856;51.422;6.794;2024-02-14T01:04:08;57.98;44.51;75.90;;
47109;Laerm;32856;51.422;6.794;2024-02-14T01:06:35;51.74;45.86;58.78;;
47109;Laerm;32856;51.422;6.794;2024-02-14T01:09:03;50.81;44.73;57.63;;
47109;Laerm;32856;51.422;6.794;2024-02-14T01:11:31;54.09;46.55;59.87;;
47109;Laerm;32856;51.422;6.794;2024-02-14T01:13:59;50.24;44.54;56.62;;
47109;Laerm;32856;51.422;6.794;2024-02-14T01:16:27;52.10;46.10;63.43;;
47109;Laerm;32856;51.422;6.794;2024-02-14T01:18:55;51.70;45.91;57.68;;
47109;Laerm;32856;51.422;6.794;2024-02-14T01:21:22;52.94;46.43;61.79;;
47109;Laerm;32856;51.422;6.794;2024-02-14T01:23:50;53.39;46.76;65.11;;
47109;Laerm;32856;51.422;6.794;2024-02-14T01:26:18;51.63;46.48;59.17;;
47109;Laerm;32856;51.422;6.794;2024-02-14T01:28:48;52.21;45.54;57.83;;
47109;Laerm;32856;51.422;6.794;2024-02-14T01:31:15;53.73;46.59;59.06;;
47109;Laerm;32856;51.422;6.794;2024-02-14T01:33:42;62.02;49.34;79.51;;
47109;Laerm;32856;51.422;6.794;2024-02-14T01:36:12;56.77;47.55;73.97;;
47109;Laerm;32856;51.422;6.794;2024-02-14T01:38:39;51.99;46.45;60.28;;
47109;Laerm;32856;51.422;6.794;2024-02-14T01:41:06;52.43;47.18;58.88;;
47109;Laerm;32856;51.422;6.794;2024-02-14T01:43:34;52.29;43.72;58.48;;
47109;Laerm;32856;51.422;6.794;2024-02-14T01:46:04;51.98;45.01;58.22;;
47109;Laerm;32856;51.422;6.794;2024-02-14T01:48:33;53.58;47.12;63.08;;
47109;Laerm;32856;51.422;6.794;2024-02-14T01:51:02;52.59;46.30;60.34;;
47109;Laerm;32856;51.422;6.794;2024-02-14T01:53:30;51.31;46.02;56.71;;
47109;Laerm;32856;51.422;6.794;2024-02-14T01:55:58;50.47;44.23;56.67;;
47109;Laerm;32856;51.422;6.794;2024-02-14T01:58:26;50.80;44.39;55.93;;
47109;Laerm;32856;51.422;6.794;2024-02-14T02:00:54;52.17;44.15;58.92;;
47109;Laerm;32856;51.422;6.794;2024-02-14T02:03:26;57.13;44.31;73.12;;
47109;Laerm;32856;51.422;6.794;2024-02-14T02:05:54;51.43;46.59;58.88;;
47109;Laerm;32856;51.422;6.794;2024-02-14T02:08:22;57.60;49.14;70.39;;
47109;Laerm;32856;51.422;6.794;2024-02-14T02:10:49;51.97;44.80;57.41;;
47109;Laerm;32856;51.422;6.794;2024-02-14T02:13:17;52.45;47.39;57.32;;
47109;Laerm;32856;51.422;6.794;2024-02-14T02:15:46;52.87;46.76;60.43;;
47109;Laerm;32856;51.422;6.794;2024-02-14T02:18:13;52.63;46.20;58.61;;
47109;Laerm;32856;51.422;6.794;2024-02-14T02:20:42;51.16;44.83;56.62;;
47109;Laerm;32856;51.422;6.794;2024-02-14T02:23:11;52.04;44.11;66.80;;
47109;Laerm;32856;51.422;6.794;2024-02-14T02:25:41;54.63;48.10;69.47;;
47109;Laerm;32856;51.422;6.794;2024-02-14T02:28:08;51.55;46.64;58.88;;
47109;Laerm;32856;51.422;6.794;2024-02-14T02:30:35;52.13;44.54;57.11;;
47109;Laerm;32856;51.422;6.794;2024-02-14T02:33:03;50.70;45.63;62.02;;
47109;Laerm;32856;51.422;6.794;2024-02-14T02:35:31;50.20;44.97;56.31;;
47109;Laerm;32856;51.422;6.794;2024-02-14T02:37:58;50.36;43.68;56.76;;
47109;Laerm;32856;51.422;6.794;2024-02-14T02:40:27;55.02;49.51;61.98;;
47109;Laerm;32856;51.422;6.794;2024-02-14T02:42:54;58.26;47.06;77.57;;
47109;Laerm;32856;51.422;6.794;2024-02-14T02:45:22;52.08;46.13;57.04;;
47109;Laerm;32856;51.422;6.794;2024-02-14T02:47:49;54.32;45.48;70.68;;
47109;Laerm;32856;51.422;6.794;2024-02-14T02:50:17;51.73;46.48;58.32;;
47109;Laerm;32856;51.422;6.794;2024-02-14T02:52:45;57.41;47.68;74.59;;
47109;Laerm;32856;51.422;6.794;2024-02-14T02:55:13;51.78;46.45;57.26;;
47109;Laerm;32856;51.422;6.794;2024-02-14T02:57:45;52.31;47.36;57.01;;
47109;Laerm;32856;51.422;6.794;2024-02-14T03:00:12;52.59;46.82;57.95;;
47109;Laerm;32856;51.422;6.794;2024-02-14T03:02:42;52.90;45.33;66.55;;
47109;Laerm;32856;51.422;6.794;2024-02-14T03:05:11;55.06;45.75;72.99;;
47109;Laerm;32856;51.422;6.794;2024-02-14T03:07:44;53.85;43.72;70.05;;
47109;Laerm;32856;51.422;6.794;2024-02-14T03:10:14;52.72;46.59;59.93;;
47109;Laerm;32856;51.422;6.794;2024-02-14T03:12:46;62.21;45.04;81.46;;
47109;Laerm;32856;51.422;6.794;2024-02-14T03:15:14;64.57;47.38;83.37;;
47109;Laerm;32856;51.422;6.794;2024-02-14T03:17:42;54.07;46.92;68.78;;
47109;Laerm;32856;51.422;6.794;2024-02-14T03:20:10;56.84;45.66;72.11;;
47109;Laerm;32856;51.422;6.794;2024-02-14T03:22:41;54.09;48.10;73.64;;
47109;Laerm;32856;51.422;6.794;2024-02-14T03:25:12;57.29;49.33;77.04;;
47109;Laerm;32856;51.422;6.794;2024-02-14T03:27:39;55.78;48.16;70.43;;
47109;Laerm;32856;51.422;6.794;2024-02-14T03:30:08;52.77;46.89;57.07;;
47109;Laerm;32856;51.422;6.794;2024-02-14T03:32:36;55.57;50.81;63.09;;
47109;Laerm;32856;51.422;6.794;2024-02-14T03:35:03;60.72;49.27;76.79;;
47109;Laerm;32856;51.422;6.794;2024-02-14T03:37:31;58.42;49.91;74.25;;
47109;Laerm;32856;51.422;6.794;2024-02-14T03:39:59;58.68;50.43;73.84;;
47109;Laerm;32856;51.422;6.794;2024-02-14T03:42:26;57.46;49.29;74.13;;
47109;Laerm;32856;51.422;6.794;2024-02-14T03:44:53;60.99;50.63;76.88;;
47109;Laerm;32856;51.422;6.794;2024-02-14T03:47:30;62.94;50.59;80.00;;
47109;Laerm;32856;51.422;6.794;2024-02-14T03:49:58;60.42;49.73;75.54;;
47109;Laerm;32856;51.422;6.794;2024-02-14T03:52:26;56.06;48.32;63.07;;
47109;Laerm;32856;51.422;6.794;2024-02-14T03:54:53;57.88;50.49;74.12;;
47109;Laerm;32856;51.422;6.794;2024-02-14T03:57:20;59.17;50.20;76.52;;
47109;Laerm;32856;51.422;6.794;2024-02-14T03:59:48;57.90;48.55;73.72;;
47109;Laerm;32856;51.422;6.794;2024-02-14T04:02:15;55.21;51.53;71.59;;
47109;Laerm;32856;51.422;6.794;2024-02-14T04:04:43;55.82;51.80;62.72;;
47109;Laerm;32856;51.422;6.794;2024-02-14T04:07:12;59.59;52.44;74.16;;
47109;Laerm;32856;51.422;6.794;2024-02-14T04:09:40;62.18;51.50;76.63;;
47109;Laerm;32856;51.422;6.794;2024-02-14T04:12:07;62.41;50.69;77.58;;
47109;Laerm;32856;51.422;6.794;2024-02-14T04:14:36;62.59;52.33;75.50;;
47109;Laerm;32856;51.422;6.794;2024-02-14T04:17:04;62.45;52.08;78.72;;
47109;Laerm;32856;51.422;6.794;2024-02-14T04:19:31;59.15;52.67;73.82;;
47109;Laerm;32856;51.422;6.794;2024-02-14T04:22:00;60.55;52.29;75.46;;
47109;Laerm;32856;51.422;6.794;2024-02-14T04:24:27;64.29;52.59;77.28;;
47109;Laerm;32856;51.422;6.794;2024-02-14T04:26:55;60.62;51.77;74.58;;
47109;Laerm;32856;51.422;6.794;2024-02-14T04:29:23;65.69;51.26;76.67;;
47109;Laerm;32856;51.422;6.794;2024-02-14T04:31:50;62.10;52.90;74.55;;
47109;Laerm;32856;51.422;6.794;2024-02-14T04:34:18;59.09;52.60;73.46;;
47109;Laerm;32856;51.422;6.794;2024-02-14T04:36:46;58.36;53.11;72.77;;
47109;Laerm;32856;51.422;6.794;2024-02-14T04:39:15;60.50;53.29;73.82;;
47109;Laerm;32856;51.422;6.794;2024-02-14T04:41:42;62.74;54.10;76.08;;
47109;Laerm;32856;51.422;6.794;2024-02-14T04:44:18;64.18;52.80;79.79;;
47109;Laerm;32856;51.422;6.794;2024-02-14T04:46:45;65.57;53.34;81.14;;
47109;Laerm;32856;51.422;6.794;2024-02-14T04:49:13;61.01;51.71;75.17;;
47109;Laerm;32856;51.422;6.794;2024-02-14T04:51:41;63.47;53.76;79.47;;
47109;Laerm;32856;51.422;6.794;2024-02-14T04:54:08;63.47;52.51;75.49;;
47109;Laerm;32856;51.422;6.794;2024-02-14T04:56:37;63.27;52.71;75.78;;
47109;Laerm;32856;51.422;6.794;2024-02-14T04:59:05;57.86;51.53;72.71;;
47109;Laerm;32856;51.422;6.794;2024-02-14T05:01:32;64.48;53.46;79.06;;
47109;Laerm;32856;51.422;6.794;2024-02-14T05:03:59;61.19;53.07;76.50;;
47109;Laerm;32856;51.422;6.794;2024-02-14T05:06:27;61.11;54.11;76.04;;
47109;Laerm;32856;51.422;6.794;2024-02-14T05:08:54;64.39;53.03;78.00;;
47109;Laerm;32856;51.422;6.794;2024-02-14T05:11:21;61.65;52.53;76.72;;
47109;Laerm;32856;51.422;6.794;2024-02-14T05:13:50;66.34;55.03;79.02;;
47109;Laerm;32856;51.422;6.794;2024-02-14T05:16:18;61.83;52.46;75.05;;
47109;Laerm;32856;51.422;6.794;2024-02-14T05:18:45;63.61;54.34;75.94;;
47109;Laerm;32856;51.422;6.794;2024-02-14T05:21:13;63.72;53.38;78.94;;
47109;Laerm;32856;51.422;6.794;2024-02-14T05:23:40;64.58;53.69;75.30;;
47109;Laerm;32856;51.422;6.794;2024-02-14T05:26:11;65.73;54.36;76.76;;
47109;Laerm;32856;51.422;6.794;2024-02-14T05:28:38;64.97;52.55;81.95;;
47109;Laerm;32856;51.422;6.794;2024-02-14T05:31:07;61.06;51.62;76.49;;
47109;Laerm;32856;51.422;6.794;2024-02-14T05:33:34;65.89;53.45;78.26;;
47109;Laerm;32856;51.422;6.794;2024-02-14T05:36:02;66.31;53.49;78.96;;
47109;Laerm;32856;51.422;6.794;2024-02-14T05:38:30;63.63;52.95;76.18;;
47109;Laerm;32856;51.422;6.794;2024-02-14T05:40:57;62.37;52.77;75.18;;
47109;Laerm;32856;51.422;6.794;2024-02-14T05:43:25;63.30;52.99;76.33;;
47109;Laerm;32856;51.422;6.794;2024-02-14T05:45:52;67.18;54.90;83.80;;
47109;Laerm;32856;51.422;6.794;2024-02-14T05:48:21;64.27;53.28;75.35;;
47109;Laerm;32856;51.422;6.794;2024-02-14T05:50:48;63.07;52.63;75.05;;
47109;Laerm;32856;51.422;6.794;2024-02-14T05:53:16;65.72;53.18;74.66;;
47109;Laerm;32856;51.422;6.794;2024-02-14T05:55:43;64.12;52.19;78.50;;
47109;Laerm;32856;51.422;6.794;2024-02-14T05:58:11;63.29;52.25;76.35;;
47109;Laerm;32856;51.422;6.794;2024-02-14T06:00:38;62.25;52.74;75.33;;
47109;Laerm;32856;51.422;6.794;2024-02-14T06:03:06;66.02;55.09;75.42;;
47109;Laerm;32856;51.422;6.794;2024-02-14T06:05:35;68.08;54.61;81.17;;
47109;Laerm;32856;51.422;6.794;2024-02-14T06:08:03;66.95;53.98;80.14;;
47109;Laerm;32856;51.422;6.794;2024-02-14T06:10:30;66.16;54.21;76.51;;
47109;Laerm;32856;51.422;6.794;2024-02-14T06:12:57;64.54;52.61;76.20;;
47109;Laerm;32856;51.422;6.794;2024-02-14T06:15:25;65.63;53.42;77.84;;
47109;Laerm;32856;51.422;6.794;2024-02-14T06:17:52;66.75;55.32;80.25;;
47109;Laerm;32856;51.422;6.794;2024-02-14T06:20:20;66.30;54.97;76.35;;
47109;Laerm;32856;51.422;6.794;2024-02-14T06:22:49;67.19;54.79;78.65;;
47109;Laerm;32856;51.422;6.794;2024-02-14T06:25:21;67.09;55.60;76.73;;
47109;Laerm;32856;51.422;6.794;2024-02-14T06:27:49;67.23;53.11;78.76;;
47109;Laerm;32856;51.422;6.794;2024-02-14T06:30:16;67.30;53.80;81.38;;
47109;Laerm;32856;51.422;6.794;2024-02-14T06:32:44;66.92;55.86;78.21;;
47109;Laerm;32856;51.422;6.794;2024-02-14T06:35:11;66.14;54.79;75.89;;
47109;Laerm;32856;51.422;6.794;2024-02-14T06:37:41;66.84;54.90;76.26;;
47109;Laerm;32856;51.422;6.794;2024-02-14T06:40:14;66.16;53.74;82.19;;
47109;Laerm;32856;51.422;6.794;2024-02-14T06:42:42;67.42;53.28;79.28;;
47109;Laerm;32856;51.422;6.794;2024-02-14T06:45:09;67.34;54.37;80.86;;
47109;Laerm;32856;51.422;6.794;2024-02-14T06:47:37;65.36;52.07;79.85;;
47109;Laerm;32856;51.422;6.794;2024-02-14T06:50:05;65.66;52.94;76.36;;
47109;Laerm;32856;51.422;6.794;2024-02-14T06:52:35;66.46;54.29;75.80;;
47109;Laerm;32856;51.422;6.794;2024-02-14T06:55:02;67.93;54.29;78.73;;
47109;Laerm;32856;51.422;6.794;2024-02-14T06:57:32;65.36;54.64;74.59;;
47109;Laerm;32856;51.422;6.794;2024-02-14T06:59:59;67.69;53.23;80.89;;
47109;Laerm;32856;51.422;6.794;2024-02-14T07:02:27;66.79;54.22;78.13;;
47109;Laerm;32856;51.422;6.794;2024-02-14T07:04:54;66.86;54.26;79.93;;
47109;Laerm;32856;51.422;6.794;2024-02-14T07:07:21;66.74;54.63;77.45;;
47109;Laerm;32856;51.422;6.794;2024-02-14T07:09:49;67.25;54.21;77.73;;
47109;Laerm;32856;51.422;6.794;2024-02-14T07:12:16;67.09;55.99;77.50;;
47109;Laerm;32856;51.422;6.794;2024-02-14T07:14:46;68.10;55.20;79.08;;
47109;Laerm;32856;51.422;6.794;2024-02-14T07:17:14;65.67;53.76;75.37;;
47109;Laerm;32856;51.422;6.794;2024-02-14T07:19:41;65.60;54.82;78.10;;
47109;Laerm;32856;51.422;6.794;2024-02-14T07:22:14;68.62;55.67;79.46;;
47109;Laerm;32856;51.422;6.794;2024-02-14T07:24:42;68.45;53.48;87.67;;
47109;Laerm;32856;51.422;6.794;2024-02-14T07:27:09;66.56;53.96;77.45;;
47109;Laerm;32856;51.422;6.794;2024-02-14T07:29:37;67.45;54.56;80.55;;
47109;Laerm;32856;51.422;6.794;2024-02-14T07:32:06;67.55;52.57;80.45;;
47109;Laerm;32856;51.422;6.794;2024-02-14T07:34:33;67.64;53.59;83.44;;
47109;Laerm;32856;51.422;6.794;2024-02-14T07:37:01;67.97;53.64;80.43;;
47109;Laerm;32856;51.422;6.794;2024-02-14T07:39:28;69.30;53.85;83.41;;
47109;Laerm;32856;51.422;6.794;2024-02-14T07:41:55;65.76;53.94;77.82;;
47109;Laerm;32856;51.422;6.794;2024-02-14T07:44:24;68.19;54.32;80.76;;
47109;Laerm;32856;51.422;6.794;2024-02-14T07:46:51;65.23;53.38;76.20;;
47109;Laerm;32856;51.422;6.794;2024-02-14T07:49:20;67.56;54.53;78.92;;
47109;Laerm;32856;51.422;6.794;2024-02-14T07:51:48;68.22;54.54;79.45;;
47109;Laerm;32856;51.422;6.794;2024-02-14T07:54:15;67.44;53.74;80.23;;
47109;Laerm;32856;51.422;6.794;2024-02-14T07:56:43;68.06;52.83;89.15;;
47109;Laerm;32856;51.422;6.794;2024-02-14T07:59:12;64.29;55.49;81.53;;
47109;Laerm;32856;51.422;6.794;2024-02-14T08:01:40;65.85;54.13;79.25;;
47109;Laerm;32856;51.422;6.794;2024-02-14T08:04:08;62.82;52.71;73.50;;
47109;Laerm;32856;51.422;6.794;2024-02-14T08:06:37;66.11;52.46;81.24;;
47109;Laerm;32856;51.422;6.794;2024-02-14T08:09:05;68.53;52.89;81.58;;
47109;Laerm;32856;51.422;6.794;2024-02-14T08:11:36;64.85;53.00;78.99;;
47109;Laerm;32856;51.422;6.794;2024-02-14T08:14:03;66.55;53.87;78.97;;
47109;Laerm;32856;51.422;6.794;2024-02-14T08:16:31;64.87;53.57;79.99;;
47109;Laerm;32856;51.422;6.794;2024-02-14T08:18:58;68.65;53.70;80.36;;
47109;Laerm;32856;51.422;6.794;2024-02-14T08:21:26;64.51;53.05;75.47;;
47109;Laerm;32856;51.422;6.794;2024-02-14T08:23:57;66.72;53.00;81.53;;
47109;Laerm;32856;51.422;6.794;2024-02-14T08:26:26;68.40;55.05;81.39;;
47109;Laerm;32856;51.422;6.794;2024-02-14T08:28:53;67.20;54.29;81.93;;
47109;Laerm;32856;51.422;6.794;2024-02-14T08:31:21;65.14;53.11;75.13;;
47109;Laerm;32856;51.422;6.794;2024-02-14T08:33:48;66.08;53.41;76.87;;
47109;Laerm;32856;51.422;6.794;2024-02-14T08:36:16;65.63;53.53;77.59;;
47109;Laerm;32856;51.422;6.794;2024-02-14T08:38:46;64.69;52.71;77.09;;
47109;Laerm;32856;51.422;6.794;2024-02-14T08:41:15;64.44;53.43;78.41;;
47109;Laerm;32856;51.422;6.794;2024-02-14T08:43:42;69.39;53.62;83.11;;
47109;Laerm;32856;51.422;6.794;2024-02-14T08:46:12;65.98;55.09;80.65;;
47109;Laerm;32856;51.422;6.794;2024-02-14T08:48:39;66.92;54.85;78.10;;
47109;Laerm;32856;51.422;6.794;2024-02-14T08:51:13;63.07;51.63;75.88;;
47109;Laerm;32856;51.422;6.794;2024-02-14T08:53:40;67.06;53.45;77.88;;
47109;Laerm;32856;51.422;6.794;2024-02-14T08:56:10;65.22;53.17;79.16;;
47109;Laerm;32856;51.422;6.794;2024-02-14T08:58:39;65.78;53.46;74.65;;
47109;Laerm;32856;51.422;6.794;2024-02-14T09:01:06;66.09;52.86;79.11;;
47109;Laerm;32856;51.422;6.794;2024-02-14T09:03:38;68.48;52.71;81.21;;
47109;Laerm;32856;51.422;6.794;2024-02-14T09:06:06;65.45;52.31;77.92;;
47109;Laerm;32856;51.422;6.794;2024-02-14T09:08:34;68.66;51.32;81.53;;
47109;Laerm;32856;51.422;6.794;2024-02-14T09:11:02;66.20;52.07;75.97;;
47109;Laerm;32856;51.422;6.794;2024-02-14T09:13:29;67.23;51.83;81.69;;
47109;Laerm;32856;51.422;6.794;2024-02-14T09:15:58;65.02;53.36;81.87;;
47109;Laerm;32856;51.422;6.794;2024-02-14T09:18:25;67.00;52.98;80.80;;
47109;Laerm;32856;51.422;6.794;2024-02-14T09:20:53;65.23;53.13;75.18;;
47109;Laerm;32856;51.422;6.794;2024-02-14T09:23:22;65.42;53.06;75.46;;
47109;Laerm;32856;51.422;6.794;2024-02-14T09:25:50;67.63;53.68;78.35;;
47109;Laerm;32856;51.422;6.794;2024-02-14T09:28:17;65.07;51.33;81.06;;
47109;Laerm;32856;51.422;6.794;2024-02-14T09:30:45;67.81;53.34;84.22;;
47109;Laerm;32856;51.422;6.794;2024-02-14T09:33:14;63.30;53.04;75.88;;
47109;Laerm;32856;51.422;6.794;2024-02-14T09:35:42;66.06;52.98;80.02;;
47109;Laerm;32856;51.422;6.794;2024-02-14T09:38:11;67.01;52.67;85.38;;
47109;Laerm;32856;51.422;6.794;2024-02-14T09:40:38;66.41;53.49;78.34;;
47109;Laerm;32856;51.422;6.794;2024-02-14T09:43:09;66.11;52.05;78.78;;
47109;Laerm;32856;51.422;6.794;2024-02-14T09:45:39;63.54;53.32;77.21;;
47109;Laerm;32856;51.422;6.794;2024-02-14T09:48:09;64.99;54.03;78.53;;
47109;Laerm;32856;51.422;6.794;2024-02-14T09:50:39;63.98;52.94;78.84;;
47109;Laerm;32856;51.422;6.794;2024-02-14T09:53:06;64.40;52.16;74.71;;
47109;Laerm;32856;51.422;6.794;2024-02-14T09:55:36;67.09;54.69;80.88;;
47109;Laerm;32856;51.422;6.794;2024-02-14T09:58:05;67.99;54.12;81.45;;
47109;Laerm;32856;51.422;6.794;2024-02-14T10:00:33;65.69;53.19;79.73;;
47109;Laerm;32856;51.422;6.794;2024-02-14T10:03:01;66.14;52.63;78.56;;
47109;Laerm;32856;51.422;6.794;2024-02-14T10:05:29;66.51;54.64;82.84;;
47109;Laerm;32856;51.422;6.794;2024-02-14T10:07:58;64.52;52.64;77.27;;
47109;Laerm;32856;51.422;6.794;2024-02-14T10:10:25;66.05;53.75;76.88;;
47109;Laerm;32856;51.422;6.794;2024-02-14T10:12:54;67.77;54.75;77.53;;
47109;Laerm;32856;51.422;6.794;2024-02-14T10:15:22;67.49;54.65;82.05;;
47109;Laerm;32856;51.422;6.794;2024-02-14T10:17:50;65.53;53.30;75.50;;
47109;Laerm;32856;51.422;6.794;2024-02-14T10:20:17;66.60;52.29;77.31;;
47109;Laerm;32856;51.422;6.794;2024-02-14T10:22:45;63.58;53.09;77.14;;
47109;Laerm;32856;51.422;6.794;2024-02-14T10:25:14;67.27;54.50;80.14;;
47109;Laerm;32856;51.422;6.794;2024-02-14T10:27:41;67.72;54.77;79.18;;
47109;Laerm;32856;51.422;6.794;2024-02-14T10:30:09;67.09;54.58;80.38;;
47109;Laerm;32856;51.422;6.794;2024-02-14T10:32:37;66.49;54.02;77.26;;
47109;Laerm;32856;51.422;6.794;2024-02-14T10:35:04;68.71;54.54;85.91;;
47109;Laerm;32856;51.422;6.794;2024-02-14T10:37:35;67.97;54.85;81.27;;
47109;Laerm;32856;51.422;6.794;2024-02-14T10:40:04;65.53;55.13;76.44;;
47109;Laerm;32856;51.422;6.794;2024-02-14T10:42:34;68.19;55.19;76.61;;
47109;Laerm;32856;51.422;6.794;2024-02-14T10:45:01;68.96;53.81;83.92;;
47109;Laerm;32856;51.422;6.794;2024-02-14T10:47:30;61.96;52.74;75.25;;
47109;Laerm;32856;51.422;6.794;2024-02-14T10:50:00;69.06;53.87;81.99;;
47109;Laerm;32856;51.422;6.794;2024-02-14T10:52:29;69.92;55.07;83.27;;
47109;Laerm;32856;51.422;6.794;2024-02-14T10:54:57;67.08;54.14;78.16;;
47109;Laerm;32856;51.422;6.794;2024-02-14T10:57:26;67.87;53.49;83.87;;
47109;Laerm;32856;51.422;6.794;2024-02-14T10:59:56;66.32;54.57;76.95;;
47109;Laerm;32856;51.422;6.794;2024-02-14T11:02:24;68.96;53.35;84.54;;
47109;Laerm;32856;51.422;6.794;2024-02-14T11:04:53;66.89;52.95;84.05;;
47109;Laerm;32856;51.422;6.794;2024-02-14T11:07:20;68.47;53.53;78.37;;
47109;Laerm;32856;51.422;6.794;2024-02-14T11:09:59;69.08;52.54;81.25;;
47109;Laerm;32856;51.422;6.794;2024-02-14T11:12:32;67.91;54.50;81.83;;
47109;Laerm;32856;51.422;6.794;2024-02-14T11:15:01;66.71;52.08;80.82;;
47109;Laerm;32856;51.422;6.794;2024-02-14T11:17:32;65.14;51.17;75.73;;
47109;Laerm;32856;51.422;6.794;2024-02-14T11:19:59;65.69;52.02;78.69;;
47109;Laerm;32856;51.422;6.794;2024-02-14T11:22:33;68.44;52.48;80.79;;
47109;Laerm;32856;51.422;6.794;2024-02-14T11:25:05;65.01;52.54;75.65;;
47109;Laerm;32856;51.422;6.794;2024-02-14T11:27:33;61.43;48.73;75.51;;
47109;Laerm;32856;51.422;6.794;2024-02-14T11:30:02;66.47;51.86;82.41;;
47109;Laerm;32856;51.422;6.794;2024-02-14T11:32:32;65.25;50.13;78.10;;
47109;Laerm;32856;51.422;6.794;2024-02-14T11:35:00;67.08;49.89;79.37;;
47109;Laerm;32856;51.422;6.794;2024-02-14T11:37:28;65.70;52.19;75.32;;
47109;Laerm;32856;51.422;6.794;2024-02-14T11:42:50;69.13;51.80;85.13;;
47109;Laerm;32856;51.422;6.794;2024-02-14T11:45:19;70.60;53.74;83.26;;
47109;Laerm;32856;51.422;6.794;2024-02-14T11:47:47;64.06;52.20;74.05;;
47109;Laerm;32856;51.422;6.794;2024-02-14T11:50:14;64.95;52.11;76.00;;
47109;Laerm;32856;51.422;6.794;2024-02-14T11:52:42;68.16;53.23;78.84;;
47109;Laerm;32856;51.422;6.794;2024-02-14T11:55:09;65.87;51.70;78.63;;
47109;Laerm;32856;51.422;6.794;2024-02-14T11:57:39;67.57;51.37;79.71;;
47109;Laerm;32856;51.422;6.794;2024-02-14T12:00:07;68.73;53.73;79.62;;
47109;Laerm;32856;51.422;6.794;2024-02-14T12:02:36;67.08;51.98;83.52;;
47109;Laerm;32856;51.422;6.794;2024-02-14T12:05:04;64.93;53.07;75.84;;
47109;Laerm;32856;51.422;6.794;2024-02-14T12:07:31;70.23;54.07;83.33;;
47109;Laerm;32856;51.422;6.794;2024-02-14T12:09:59;66.31;51.77;77.22;;
47109;Laerm;32856;51.422;6.794;2024-02-14T12:12:27;66.68;51.88;80.33;;
47109;Laerm;32856;51.422;6.794;2024-02-14T12:14:54;68.01;53.28;78.76;;
47109;Laerm;32856;51.422;6.794;2024-02-14T12:17:22;69.89;51.86;82.99;;
47109;Laerm;32856;51.422;6.794;2024-02-14T12:19:50;66.51;51.76;77.22;;
47109;Laerm;32856;51.422;6.794;2024-02-14T12:22:19;67.44;52.87;84.87;;
47109;Laerm;32856;51.422;6.794;2024-02-14T12:24:47;67.61;53.18;82.10;;
47109;Laerm;32856;51.422;6.794;2024-02-14T12:27:16;68.28;53.29;80.05;;
47109;Laerm;32856;51.422;6.794;2024-02-14T12:29:45;68.89;51.85;84.80;;
47109;Laerm;32856;51.422;6.794;2024-02-14T12:32:15;65.36;52.87;77.37;;
47109;Laerm;32856;51.422;6.794;2024-02-14T12:34:43;69.07;52.04;79.47;;
47109;Laerm;32856;51.422;6.794;2024-02-14T12:37:12;68.58;52.93;82.63;;
47109;Laerm;32856;51.422;6.794;2024-02-14T12:39:39;65.60;50.92;76.35;;
47109;Laerm;32856;51.422;6.794;2024-02-14T12:42:07;70.51;55.77;82.53;;
47109;Laerm;32856;51.422;6.794;2024-02-14T12:44:34;67.62;52.63;82.35;;
47109;Laerm;32856;51.422;6.794;2024-02-14T12:47:02;67.73;53.12;79.38;;
47109;Laerm;32856;51.422;6.794;2024-02-14T12:49:30;68.18;54.93;84.85;;
47109;Laerm;32856;51.422;6.794;2024-02-14T12:51:58;67.20;53.75;82.26;;
47109;Laerm;32856;51.422;6.794;2024-02-14T12:54:27;66.73;52.83;76.09;;
47109;Laerm;32856;51.422;6.794;2024-02-14T12:56:54;66.41;53.64;75.71;;
47109;Laerm;32856;51.422;6.794;2024-02-14T12:59:21;67.56;53.32;76.22;;
47109;Laerm;32856;51.422;6.794;2024-02-14T13:01:49;69.29;53.30;80.53;;
47109;Laerm;32856;51.422;6.794;2024-02-14T13:04:16;68.12;52.62;83.06;;
47109;Laerm;32856;51.422;6.794;2024-02-14T13:06:43;70.15;54.29;81.56;;
47109;Laerm;32856;51.422;6.794;2024-02-14T13:09:12;69.33;53.34;82.39;;
47109;Laerm;32856;51.422;6.794;2024-02-14T13:11:43;65.71;51.48;77.04;;
47109;Laerm;32856;51.422;6.794;2024-02-14T13:14:10;67.77;54.80;82.68;;
47109;Laerm;32856;51.422;6.794;2024-02-14T13:16:38;67.42;52.56;78.94;;
47109;Laerm;32856;51.422;6.794;2024-02-14T13:19:06;66.59;53.04;76.67;;
47109;Laerm;32856;51.422;6.794;2024-02-14T13:21:33;65.10;51.08;73.57;;
47109;Laerm;32856;51.422;6.794;2024-02-14T13:24:01;68.87;54.41;81.26;;
47109;Laerm;32856;51.422;6.794;2024-02-14T13:26:30;67.80;52.23;79.69;;
47109;Laerm;32856;51.422;6.794;2024-02-14T13:28:58;67.15;54.50;78.33;;
47109;Laerm;32856;51.422;6.794;2024-02-14T13:31:26;68.97;54.40;87.87;;
47109;Laerm;32856;51.422;6.794;2024-02-14T13:33:53;66.71;53.53;78.76;;
47109;Laerm;32856;51.422;6.794;2024-02-14T13:36:21;67.71;53.12;79.30;;
47109;Laerm;32856;51.422;6.794;2024-02-14T13:38:49;66.86;53.05;79.65;;
47109;Laerm;32856;51.422;6.794;2024-02-14T13:41:17;66.73;52.16;77.23;;
47109;Laerm;32856;51.422;6.794;2024-02-14T13:43:44;68.09;52.50;77.15;;
47109;Laerm;32856;51.422;6.794;2024-02-14T13:46:13;67.64;53.43;81.16;;
47109;Laerm;32856;51.422;6.794;2024-02-14T13:48:41;68.14;53.05;79.21;;
47109;Laerm;32856;51.422;6.794;2024-02-14T13:51:08;70.54;55.05;86.20;;